sensor_id;sensor_type;location;lat;lon;timestamp;P1;durP1;ratioP1;P2;durP2;ratioP2
18455;SDS011;9357;49.900;8.208;2023-06-22T00:00:50;7.50;;;5.73;;
18455;SDS011;9357;49.900;8.208;2023-06-22T00:02:23;5.57;;;5.07;;
18455;SDS011;9357;49.900;8.208;2023-06-22T00:03:55;6.07;;;5.47;;
18455;SDS011;9357;49.900;8.208;2023-06-22T00:05:28;6.20;;;5.60;;
18455;SDS011;9357;49.900;8.208;2023-06-22T00:07:01;6.40;;;5.80;;
18455;SDS011;9357;49.900;8.208;2023-06-22T00:08:35;6.53;;;5.90;;
18455;SDS011;9357;49.900;8.208;2023-06-22T00:10:07;6.23;;;5.57;;
18455;SDS011;9357;49.900;8.208;2023-06-22T00:11:39;6.63;;;5.93;;
18455;SDS011;9357;49.900;8.208;2023-06-22T00:13:12;5.70;;;5.20;;
18455;SDS011;9357;49.900;8.208;2023-06-22T00:14:46;6.77;;;6.00;;
18455;SDS011;9357;49.900;8.208;2023-06-22T00:16:19;7.10;;;5.10;;
18455;SDS011;9357;49.900;8.208;2023-06-22T00:17:52;6.63;;;6.03;;
18455;SDS011;9357;49.900;8.208;2023-06-22T00:19:25;6.63;;;6.00;;
18455;SDS011;9357;49.900;8.208;2023-06-22T00:20:57;6.13;;;5.60;;
18455;SDS011;9357;49.900;8.208;2023-06-22T00:22:31;7.00;;;6.20;;
18455;SDS011;9357;49.900;8.208;2023-06-22T00:24:10;7.03;;;6.43;;
18455;SDS011;9357;49.900;8.208;2023-06-22T00:25:43;6.73;;;6.13;;
18455;SDS011;9357;49.900;8.208;2023-06-22T00:27:16;8.00;;;6.40;;
18455;SDS011;9357;49.900;8.208;2023-06-22T00:28:49;6.60;;;6.00;;
18455;SDS011;9357;49.900;8.208;2023-06-22T00:30:21;7.20;;;6.50;;
18455;SDS011;9357;49.900;8.208;2023-06-22T00:31:54;6.90;;;6.30;;
18455;SDS011;9357;49.900;8.208;2023-06-22T00:33:27;6.70;;;6.00;;
18455;SDS011;9357;49.900;8.208;2023-06-22T00:35:00;7.10;;;6.50;;
18455;SDS011;9357;49.900;8.208;2023-06-22T00:36:33;7.13;;;6.50;;
18455;SDS011;9357;49.900;8.208;2023-06-22T00:38:05;8.27;;;6.40;;
18455;SDS011;9357;49.900;8.208;2023-06-22T00:39:40;8.43;;;6.60;;
18455;SDS011;9357;49.900;8.208;2023-06-22T00:41:13;6.53;;;5.93;;
18455;SDS011;9357;49.900;8.208;2023-06-22T00:42:46;7.37;;;5.80;;
18455;SDS011;9357;49.900;8.208;2023-06-22T00:44:19;6.97;;;5.90;;
18455;SDS011;9357;49.900;8.208;2023-06-22T00:45:51;7.17;;;6.47;;
18455;SDS011;9357;49.900;8.208;2023-06-22T00:47:24;6.33;;;5.73;;
18455;SDS011;9357;49.900;8.208;2023-06-22T00:48:57;7.13;;;6.47;;
18455;SDS011;9357;49.900;8.208;2023-06-22T00:50:31;7.30;;;6.60;;
18455;SDS011;9357;49.900;8.208;2023-06-22T00:52:05;7.73;;;6.80;;
18455;SDS011;9357;49.900;8.208;2023-06-22T00:53:40;9.60;;;7.23;;
18455;SDS011;9357;49.900;8.208;2023-06-22T00:55:15;7.77;;;7.07;;
18455;SDS011;9357;49.900;8.208;2023-06-22T00:56:49;8.30;;;7.53;;
18455;SDS011;9357;49.900;8.208;2023-06-22T00:58:23;8.40;;;7.60;;
18455;SDS011;9357;49.900;8.208;2023-06-22T00:59:56;9.67;;;8.17;;
18455;SDS011;9357;49.900;8.208;2023-06-22T01:01:29;11.07;;;8.50;;
18455;SDS011;9357;49.900;8.208;2023-06-22T01:03:02;8.80;;;7.90;;
18455;SDS011;9357;49.900;8.208;2023-06-22T01:04:35;9.10;;;8.20;;
18455;SDS011;9357;49.900;8.208;2023-06-22T01:06:10;9.83;;;8.27;;
18455;SDS011;9357;49.900;8.208;2023-06-22T01:07:55;10.00;;;9.00;;
18455;SDS011;9357;49.900;8.208;2023-06-22T01:09:39;9.53;;;8.63;;
18455;SDS011;9357;49.900;8.208;2023-06-22T01:11:19;9.50;;;8.50;;
18455;SDS011;9357;49.900;8.208;2023-06-22T01:12:58;9.77;;;8.77;;
18455;SDS011;9357;49.900;8.208;2023-06-22T01:14:37;9.60;;;8.70;;
18455;SDS011;9357;49.900;8.208;2023-06-22T01:16:14;10.40;;;9.20;;
18455;SDS011;9357;49.900;8.208;2023-06-22T01:17:52;10.70;;;9.70;;
18455;SDS011;9357;49.900;8.208;2023-06-22T01:19:29;10.37;;;9.37;;
18455;SDS011;9357;49.900;8.208;2023-06-22T01:21:14;10.27;;;9.27;;
18455;SDS011;9357;49.900;8.208;2023-06-22T01:22:54;9.83;;;8.83;;
18455;SDS011;9357;49.900;8.208;2023-06-22T01:24:41;10.87;;;9.77;;
18455;SDS011;9357;49.900;8.208;2023-06-22T01:26:20;10.73;;;9.63;;
18455;SDS011;9357;49.900;8.208;2023-06-22T01:28:02;9.80;;;8.87;;
18455;SDS011;9357;49.900;8.208;2023-06-22T01:29:47;8.60;;;7.80;;
18455;SDS011;9357;49.900;8.208;2023-06-22T01:31:23;9.10;;;8.30;;
18455;SDS011;9357;49.900;8.208;2023-06-22T01:32:58;9.80;;;8.80;;
18455;SDS011;9357;49.900;8.208;2023-06-22T01:34:32;9.90;;;9.00;;
18455;SDS011;9357;49.900;8.208;2023-06-22T01:36:06;10.93;;;9.87;;
18455;SDS011;9357;49.900;8.208;2023-06-22T01:37:39;8.60;;;7.80;;
18455;SDS011;9357;49.900;8.208;2023-06-22T01:39:12;8.63;;;7.87;;
18455;SDS011;9357;49.900;8.208;2023-06-22T01:40:45;8.87;;;8.07;;
18455;SDS011;9357;49.900;8.208;2023-06-22T01:42:18;10.07;;;9.17;;
18455;SDS011;9357;49.900;8.208;2023-06-22T01:43:52;10.53;;;9.53;;
18455;SDS011;9357;49.900;8.208;2023-06-22T01:45:26;10.77;;;9.30;;
18455;SDS011;9357;49.900;8.208;2023-06-22T01:46:59;11.53;;;10.33;;
18455;SDS011;9357;49.900;8.208;2023-06-22T01:48:33;11.27;;;10.17;;
18455;SDS011;9357;49.900;8.208;2023-06-22T01:50:05;11.57;;;10.50;;
18455;SDS011;9357;49.900;8.208;2023-06-22T01:51:39;10.40;;;9.40;;
18455;SDS011;9357;49.900;8.208;2023-06-22T01:53:11;11.10;;;10.00;;
18455;SDS011;9357;49.900;8.208;2023-06-22T01:54:44;10.53;;;9.43;;
18455;SDS011;9357;49.900;8.208;2023-06-22T01:56:17;10.50;;;9.50;;
18455;SDS011;9357;49.900;8.208;2023-06-22T01:57:50;8.90;;;8.10;;
18455;SDS011;9357;49.900;8.208;2023-06-22T01:59:25;10.23;;;9.03;;
18455;SDS011;9357;49.900;8.208;2023-06-22T02:01:03;10.20;;;9.03;;
18455;SDS011;9357;49.900;8.208;2023-06-22T02:02:46;9.83;;;8.93;;
18455;SDS011;9357;49.900;8.208;2023-06-22T02:04:27;11.30;;;10.10;;
18455;SDS011;9357;49.900;8.208;2023-06-22T02:06:05;12.77;;;11.07;;
18455;SDS011;9357;49.900;8.208;2023-06-22T02:07:42;12.03;;;10.93;;
18455;SDS011;9357;49.900;8.208;2023-06-22T02:09:18;11.70;;;10.50;;
18455;SDS011;9357;49.900;8.208;2023-06-22T02:10:53;11.87;;;10.73;;
18455;SDS011;9357;49.900;8.208;2023-06-22T02:12:26;12.50;;;11.30;;
18455;SDS011;9357;49.900;8.208;2023-06-22T02:14:01;12.73;;;11.40;;
18455;SDS011;9357;49.900;8.208;2023-06-22T02:15:34;12.27;;;10.97;;
18455;SDS011;9357;49.900;8.208;2023-06-22T02:17:09;11.03;;;9.87;;
18455;SDS011;9357;49.900;8.208;2023-06-22T02:18:45;10.90;;;9.90;;
18455;SDS011;9357;49.900;8.208;2023-06-22T02:20:18;11.27;;;10.20;;
18455;SDS011;9357;49.900;8.208;2023-06-22T02:21:51;10.83;;;9.83;;
18455;SDS011;9357;49.900;8.208;2023-06-22T02:23:24;10.47;;;9.20;;
18455;SDS011;9357;49.900;8.208;2023-06-22T02:24:56;10.80;;;9.80;;
18455;SDS011;9357;49.900;8.208;2023-06-22T02:26:29;10.13;;;8.33;;
18455;SDS011;9357;49.900;8.208;2023-06-22T02:28:03;11.47;;;10.13;;
18455;SDS011;9357;49.900;8.208;2023-06-22T02:29:36;11.77;;;10.57;;
18455;SDS011;9357;49.900;8.208;2023-06-22T02:31:09;12.77;;;10.63;;
18455;SDS011;9357;49.900;8.208;2023-06-22T02:32:43;11.90;;;10.60;;
18455;SDS011;9357;49.900;8.208;2023-06-22T02:34:16;12.73;;;11.53;;
18455;SDS011;9357;49.900;8.208;2023-06-22T02:35:50;13.17;;;10.87;;
18455;SDS011;9357;49.900;8.208;2023-06-22T02:37:23;12.70;;;11.50;;
18455;SDS011;9357;49.900;8.208;2023-06-22T02:38:57;11.90;;;10.77;;
18455;SDS011;9357;49.900;8.208;2023-06-22T02:40:32;12.30;;;10.87;;
18455;SDS011;9357;49.900;8.208;2023-06-22T02:42:04;12.33;;;11.13;;
18455;SDS011;9357;49.900;8.208;2023-06-22T02:43:37;12.00;;;10.80;;
18455;SDS011;9357;49.900;8.208;2023-06-22T02:45:10;12.50;;;11.30;;
18455;SDS011;9357;49.900;8.208;2023-06-22T02:46:43;11.53;;;10.33;;
18455;SDS011;9357;49.900;8.208;2023-06-22T02:48:17;11.93;;;10.73;;
18455;SDS011;9357;49.900;8.208;2023-06-22T02:49:50;11.00;;;10.00;;
18455;SDS011;9357;49.900;8.208;2023-06-22T02:51:22;10.93;;;9.83;;
18455;SDS011;9357;49.900;8.208;2023-06-22T02:52:55;11.30;;;10.20;;
18455;SDS011;9357;49.900;8.208;2023-06-22T02:54:29;11.90;;;10.40;;
18455;SDS011;9357;49.900;8.208;2023-06-22T02:56:02;11.77;;;10.57;;
18455;SDS011;9357;49.900;8.208;2023-06-22T02:57:36;11.97;;;10.77;;
18455;SDS011;9357;49.900;8.208;2023-06-22T02:59:09;11.47;;;9.80;;
18455;SDS011;9357;49.900;8.208;2023-06-22T03:00:42;11.03;;;9.77;;
18455;SDS011;9357;49.900;8.208;2023-06-22T03:02:14;10.03;;;9.00;;
18455;SDS011;9357;49.900;8.208;2023-06-22T03:03:47;8.70;;;7.80;;
18455;SDS011;9357;49.900;8.208;2023-06-22T03:05:20;9.80;;;8.83;;
18455;SDS011;9357;49.900;8.208;2023-06-22T03:06:53;10.53;;;9.43;;
18455;SDS011;9357;49.900;8.208;2023-06-22T03:08:26;12.43;;;10.77;;
18455;SDS011;9357;49.900;8.208;2023-06-22T03:10:00;12.30;;;10.73;;
18455;SDS011;9357;49.900;8.208;2023-06-22T03:11:32;11.00;;;9.80;;
18455;SDS011;9357;49.900;8.208;2023-06-22T03:13:06;9.70;;;8.47;;
18455;SDS011;9357;49.900;8.208;2023-06-22T03:14:39;11.70;;;9.70;;
18455;SDS011;9357;49.900;8.208;2023-06-22T03:16:11;13.40;;;11.17;;
18455;SDS011;9357;49.900;8.208;2023-06-22T03:17:44;10.70;;;9.60;;
18455;SDS011;9357;49.900;8.208;2023-06-22T03:19:18;12.30;;;10.93;;
18455;SDS011;9357;49.900;8.208;2023-06-22T03:20:52;12.20;;;10.93;;
18455;SDS011;9357;49.900;8.208;2023-06-22T03:22:25;12.47;;;11.10;;
18455;SDS011;9357;49.900;8.208;2023-06-22T03:23:57;13.07;;;11.77;;
18455;SDS011;9357;49.900;8.208;2023-06-22T03:25:30;12.67;;;11.37;;
18455;SDS011;9357;49.900;8.208;2023-06-22T03:27:02;13.07;;;11.67;;
18455;SDS011;9357;49.900;8.208;2023-06-22T03:28:37;12.97;;;11.70;;
18455;SDS011;9357;49.900;8.208;2023-06-22T03:30:10;13.67;;;12.37;;
18455;SDS011;9357;49.900;8.208;2023-06-22T03:31:44;12.97;;;11.50;;
18455;SDS011;9357;49.900;8.208;2023-06-22T03:33:16;13.43;;;11.50;;
18455;SDS011;9357;49.900;8.208;2023-06-22T03:34:50;13.90;;;11.97;;
18455;SDS011;9357;49.900;8.208;2023-06-22T03:36:23;13.07;;;11.77;;
18455;SDS011;9357;49.900;8.208;2023-06-22T03:37:56;13.20;;;11.87;;
18455;SDS011;9357;49.900;8.208;2023-06-22T03:39:29;14.80;;;12.20;;
18455;SDS011;9357;49.900;8.208;2023-06-22T03:41:01;14.07;;;11.90;;
18455;SDS011;9357;49.900;8.208;2023-06-22T03:42:34;12.60;;;11.40;;
18455;SDS011;9357;49.900;8.208;2023-06-22T03:44:07;13.20;;;11.53;;
18455;SDS011;9357;49.900;8.208;2023-06-22T03:45:43;13.60;;;12.13;;
18455;SDS011;9357;49.900;8.208;2023-06-22T03:47:16;13.00;;;11.70;;
18455;SDS011;9357;49.900;8.208;2023-06-22T03:48:49;14.00;;;12.60;;
18455;SDS011;9357;49.900;8.208;2023-06-22T03:50:23;13.37;;;12.07;;
18455;SDS011;9357;49.900;8.208;2023-06-22T03:51:56;13.37;;;11.77;;
18455;SDS011;9357;49.900;8.208;2023-06-22T03:53:28;13.73;;;11.33;;
18455;SDS011;9357;49.900;8.208;2023-06-22T03:55:01;12.47;;;11.30;;
18455;SDS011;9357;49.900;8.208;2023-06-22T03:56:34;12.27;;;11.20;;
18455;SDS011;9357;49.900;8.208;2023-06-22T03:58:08;12.60;;;11.27;;
18455;SDS011;9357;49.900;8.208;2023-06-22T03:59:40;13.40;;;11.63;;
18455;SDS011;9357;49.900;8.208;2023-06-22T04:01:13;12.37;;;11.27;;
18455;SDS011;9357;49.900;8.208;2023-06-22T04:02:48;13.13;;;11.43;;
18455;SDS011;9357;49.900;8.208;2023-06-22T04:04:21;13.50;;;12.20;;
18455;SDS011;9357;49.900;8.208;2023-06-22T04:05:54;12.73;;;11.40;;
18455;SDS011;9357;49.900;8.208;2023-06-22T04:07:27;12.43;;;11.23;;
18455;SDS011;9357;49.900;8.208;2023-06-22T04:08:59;13.30;;;11.93;;
18455;SDS011;9357;49.900;8.208;2023-06-22T04:10:32;13.27;;;11.60;;
18455;SDS011;9357;49.900;8.208;2023-06-22T04:12:05;12.70;;;11.60;;
18455;SDS011;9357;49.900;8.208;2023-06-22T04:13:38;13.83;;;12.43;;
18455;SDS011;9357;49.900;8.208;2023-06-22T04:15:11;14.07;;;12.63;;
18455;SDS011;9357;49.900;8.208;2023-06-22T04:16:44;13.20;;;11.90;;
18455;SDS011;9357;49.900;8.208;2023-06-22T04:18:17;13.57;;;12.27;;
18455;SDS011;9357;49.900;8.208;2023-06-22T04:19:49;13.30;;;11.77;;
18455;SDS011;9357;49.900;8.208;2023-06-22T04:21:23;13.33;;;11.73;;
18455;SDS011;9357;49.900;8.208;2023-06-22T04:22:55;13.67;;;11.30;;
18455;SDS011;9357;49.900;8.208;2023-06-22T04:24:28;13.13;;;11.63;;
18455;SDS011;9357;49.900;8.208;2023-06-22T04:26:01;13.17;;;11.83;;
18455;SDS011;9357;49.900;8.208;2023-06-22T04:27:33;14.37;;;12.97;;
18455;SDS011;9357;49.900;8.208;2023-06-22T04:29:09;13.80;;;12.47;;
18455;SDS011;9357;49.900;8.208;2023-06-22T04:30:42;13.93;;;12.60;;
18455;SDS011;9357;49.900;8.208;2023-06-22T04:32:18;13.10;;;11.87;;
18455;SDS011;9357;49.900;8.208;2023-06-22T04:33:51;14.03;;;12.63;;
18455;SDS011;9357;49.900;8.208;2023-06-22T04:35:24;13.10;;;11.73;;
18455;SDS011;9357;49.900;8.208;2023-06-22T04:36:58;14.40;;;12.93;;
18455;SDS011;9357;49.900;8.208;2023-06-22T04:38:31;14.53;;;12.63;;
18455;SDS011;9357;49.900;8.208;2023-06-22T04:40:05;14.50;;;12.93;;
18455;SDS011;9357;49.900;8.208;2023-06-22T04:41:39;14.63;;;13.23;;
18455;SDS011;9357;49.900;8.208;2023-06-22T04:43:15;13.97;;;12.57;;
18455;SDS011;9357;49.900;8.208;2023-06-22T04:44:48;14.30;;;12.90;;
18455;SDS011;9357;49.900;8.208;2023-06-22T04:46:21;14.07;;;12.67;;
18455;SDS011;9357;49.900;8.208;2023-06-22T04:47:54;15.57;;;13.97;;
18455;SDS011;9357;49.900;8.208;2023-06-22T04:49:27;15.47;;;13.87;;
18455;SDS011;9357;49.900;8.208;2023-06-22T04:51:04;14.20;;;12.80;;
18455;SDS011;9357;49.900;8.208;2023-06-22T04:52:38;15.60;;;13.87;;
18455;SDS011;9357;49.900;8.208;2023-06-22T04:54:10;15.13;;;13.63;;
18455;SDS011;9357;49.900;8.208;2023-06-22T04:55:43;15.37;;;13.83;;
18455;SDS011;9357;49.900;8.208;2023-06-22T04:57:17;15.30;;;13.70;;
18455;SDS011;9357;49.900;8.208;2023-06-22T04:58:50;16.03;;;14.43;;
18455;SDS011;9357;49.900;8.208;2023-06-22T05:00:23;15.47;;;13.87;;
18455;SDS011;9357;49.900;8.208;2023-06-22T05:01:56;15.80;;;13.60;;
18455;SDS011;9357;49.900;8.208;2023-06-22T05:03:29;15.53;;;14.03;;
18455;SDS011;9357;49.900;8.208;2023-06-22T05:05:02;15.80;;;14.20;;
18455;SDS011;9357;49.900;8.208;2023-06-22T05:06:38;14.90;;;13.40;;
18455;SDS011;9357;49.900;8.208;2023-06-22T05:08:13;14.73;;;13.27;;
18455;SDS011;9357;49.900;8.208;2023-06-22T05:09:46;15.00;;;13.50;;
18455;SDS011;9357;49.900;8.208;2023-06-22T05:11:19;15.67;;;13.23;;
18455;SDS011;9357;49.900;8.208;2023-06-22T05:12:51;15.57;;;14.07;;
18455;SDS011;9357;49.900;8.208;2023-06-22T05:14:24;16.03;;;14.40;;
18455;SDS011;9357;49.900;8.208;2023-06-22T05:15:57;15.50;;;13.93;;
18455;SDS011;9357;49.900;8.208;2023-06-22T05:17:32;15.57;;;14.07;;
18455;SDS011;9357;49.900;8.208;2023-06-22T05:19:05;15.53;;;14.03;;
18455;SDS011;9357;49.900;8.208;2023-06-22T05:20:38;15.73;;;14.23;;
18455;SDS011;9357;49.900;8.208;2023-06-22T05:22:11;16.53;;;14.00;;
18455;SDS011;9357;49.900;8.208;2023-06-22T05:23:45;15.50;;;14.03;;
18455;SDS011;9357;49.900;8.208;2023-06-22T05:25:18;16.73;;;14.93;;
18455;SDS011;9357;49.900;8.208;2023-06-22T05:26:51;15.63;;;14.20;;
18455;SDS011;9357;49.900;8.208;2023-06-22T05:28:24;16.07;;;14.37;;
18455;SDS011;9357;49.900;8.208;2023-06-22T05:29:57;16.10;;;14.40;;
18455;SDS011;9357;49.900;8.208;2023-06-22T05:31:29;15.83;;;14.30;;
18455;SDS011;9357;49.900;8.208;2023-06-22T05:33:02;15.03;;;13.60;;
18455;SDS011;9357;49.900;8.208;2023-06-22T05:34:35;16.07;;;14.50;;
18455;SDS011;9357;49.900;8.208;2023-06-22T05:36:08;16.17;;;14.63;;
18455;SDS011;9357;49.900;8.208;2023-06-22T05:37:41;14.83;;;13.43;;
18455;SDS011;9357;49.900;8.208;2023-06-22T05:39:15;15.10;;;13.50;;
18455;SDS011;9357;49.900;8.208;2023-06-22T05:40:48;15.70;;;14.20;;
18455;SDS011;9357;49.900;8.208;2023-06-22T05:42:20;15.77;;;13.80;;
18455;SDS011;9357;49.900;8.208;2023-06-22T05:43:53;15.03;;;13.53;;
18455;SDS011;9357;49.900;8.208;2023-06-22T05:45:26;15.40;;;13.80;;
18455;SDS011;9357;49.900;8.208;2023-06-22T05:46:59;15.13;;;13.53;;
18455;SDS011;9357;49.900;8.208;2023-06-22T05:48:32;14.43;;;12.93;;
18455;SDS011;9357;49.900;8.208;2023-06-22T05:50:05;14.90;;;13.30;;
18455;SDS011;9357;49.900;8.208;2023-06-22T05:51:42;15.03;;;13.63;;
18455;SDS011;9357;49.900;8.208;2023-06-22T05:53:15;14.43;;;13.00;;
18455;SDS011;9357;49.900;8.208;2023-06-22T05:54:49;14.30;;;12.90;;
18455;SDS011;9357;49.900;8.208;2023-06-22T05:56:22;14.17;;;12.77;;
18455;SDS011;9357;49.900;8.208;2023-06-22T05:57:55;14.10;;;12.60;;
18455;SDS011;9357;49.900;8.208;2023-06-22T05:59:27;15.30;;;13.70;;
18455;SDS011;9357;49.900;8.208;2023-06-22T06:01:00;14.67;;;13.17;;
18455;SDS011;9357;49.900;8.208;2023-06-22T06:02:33;14.53;;;13.00;;
18455;SDS011;9357;49.900;8.208;2023-06-22T06:04:07;14.77;;;13.13;;
18455;SDS011;9357;49.900;8.208;2023-06-22T06:05:40;13.63;;;12.23;;
18455;SDS011;9357;49.900;8.208;2023-06-22T06:07:13;13.87;;;12.47;;
18455;SDS011;9357;49.900;8.208;2023-06-22T06:08:45;15.30;;;13.70;;
18455;SDS011;9357;49.900;8.208;2023-06-22T06:10:20;13.83;;;12.53;;
18455;SDS011;9357;49.900;8.208;2023-06-22T06:11:52;13.43;;;12.23;;
18455;SDS011;9357;49.900;8.208;2023-06-22T06:13:25;14.17;;;12.87;;
18455;SDS011;9357;49.900;8.208;2023-06-22T06:14:58;17.33;;;13.47;;
18455;SDS011;9357;49.900;8.208;2023-06-22T06:16:31;14.73;;;13.23;;
18455;SDS011;9357;49.900;8.208;2023-06-22T06:18:04;14.47;;;12.97;;
18455;SDS011;9357;49.900;8.208;2023-06-22T06:19:38;16.00;;;13.27;;
18455;SDS011;9357;49.900;8.208;2023-06-22T06:21:10;14.10;;;12.70;;
18455;SDS011;9357;49.900;8.208;2023-06-22T06:22:43;14.27;;;12.87;;
18455;SDS011;9357;49.900;8.208;2023-06-22T06:24:16;14.53;;;12.93;;
18455;SDS011;9357;49.900;8.208;2023-06-22T06:25:50;13.13;;;11.93;;
18455;SDS011;9357;49.900;8.208;2023-06-22T06:27:22;13.37;;;12.17;;
18455;SDS011;9357;49.900;8.208;2023-06-22T06:29:00;15.03;;;13.53;;
18455;SDS011;9357;49.900;8.208;2023-06-22T06:30:34;14.27;;;12.83;;
18455;SDS011;9357;49.900;8.208;2023-06-22T06:32:08;14.53;;;12.60;;
18455;SDS011;9357;49.900;8.208;2023-06-22T06:33:41;13.73;;;12.13;;
18455;SDS011;9357;49.900;8.208;2023-06-22T06:35:14;13.77;;;12.37;;
18455;SDS011;9357;49.900;8.208;2023-06-22T06:36:48;13.30;;;12.03;;
18455;SDS011;9357;49.900;8.208;2023-06-22T06:38:20;14.70;;;11.80;;
18455;SDS011;9357;49.900;8.208;2023-06-22T06:39:53;13.73;;;12.43;;
18455;SDS011;9357;49.900;8.208;2023-06-22T06:41:27;13.53;;;12.13;;
18455;SDS011;9357;49.900;8.208;2023-06-22T06:43:00;14.87;;;12.53;;
18455;SDS011;9357;49.900;8.208;2023-06-22T06:44:33;13.77;;;12.40;;
18455;SDS011;9357;49.900;8.208;2023-06-22T06:46:06;14.43;;;11.77;;
18455;SDS011;9357;49.900;8.208;2023-06-22T06:47:39;13.33;;;12.03;;
18455;SDS011;9357;49.900;8.208;2023-06-22T06:49:11;13.60;;;12.30;;
18455;SDS011;9357;49.900;8.208;2023-06-22T06:50:44;13.10;;;11.60;;
18455;SDS011;9357;49.900;8.208;2023-06-22T06:52:16;13.87;;;12.43;;
18455;SDS011;9357;49.900;8.208;2023-06-22T06:53:50;13.00;;;11.70;;
18455;SDS011;9357;49.900;8.208;2023-06-22T06:55:23;13.10;;;11.80;;
18455;SDS011;9357;49.900;8.208;2023-06-22T06:56:57;12.90;;;11.70;;
18455;SDS011;9357;49.900;8.208;2023-06-22T06:58:30;12.57;;;11.27;;
18455;SDS011;9357;49.900;8.208;2023-06-22T07:00:04;14.10;;;12.10;;
18455;SDS011;9357;49.900;8.208;2023-06-22T07:01:41;14.03;;;11.43;;
18455;SDS011;9357;49.900;8.208;2023-06-22T07:03:15;11.87;;;10.70;;
18455;SDS011;9357;49.900;8.208;2023-06-22T07:04:48;13.50;;;12.10;;
18455;SDS011;9357;49.900;8.208;2023-06-22T07:06:21;12.97;;;11.67;;
18455;SDS011;9357;49.900;8.208;2023-06-22T07:07:54;12.33;;;11.13;;
18455;SDS011;9357;49.900;8.208;2023-06-22T07:09:27;11.77;;;10.63;;
18455;SDS011;9357;49.900;8.208;2023-06-22T07:10:59;12.63;;;11.53;;
18455;SDS011;9357;49.900;8.208;2023-06-22T07:12:33;12.93;;;11.63;;
18455;SDS011;9357;49.900;8.208;2023-06-22T07:14:06;12.43;;;10.40;;
18455;SDS011;9357;49.900;8.208;2023-06-22T07:15:39;12.13;;;11.00;;
18455;SDS011;9357;49.900;8.208;2023-06-22T07:17:13;12.17;;;11.13;;
18455;SDS011;9357;49.900;8.208;2023-06-22T07:18:46;12.07;;;10.87;;
18455;SDS011;9357;49.900;8.208;2023-06-22T07:20:18;12.40;;;10.70;;
18455;SDS011;9357;49.900;8.208;2023-06-22T07:21:51;12.57;;;11.37;;
18455;SDS011;9357;49.900;8.208;2023-06-22T07:23:24;11.43;;;10.23;;
18455;SDS011;9357;49.900;8.208;2023-06-22T07:24:57;12.17;;;10.93;;
18455;SDS011;9357;49.900;8.208;2023-06-22T07:26:30;11.33;;;10.17;;
18455;SDS011;9357;49.900;8.208;2023-06-22T07:28:04;12.10;;;10.97;;
18455;SDS011;9357;49.900;8.208;2023-06-22T07:29:39;12.17;;;10.97;;
18455;SDS011;9357;49.900;8.208;2023-06-22T07:31:13;11.07;;;10.03;;
18455;SDS011;9357;49.900;8.208;2023-06-22T07:32:46;12.97;;;11.67;;
18455;SDS011;9357;49.900;8.208;2023-06-22T07:34:19;12.13;;;11.03;;
18455;SDS011;9357;49.900;8.208;2023-06-22T07:35:51;12.50;;;11.40;;
18455;SDS011;9357;49.900;8.208;2023-06-22T07:37:24;12.13;;;10.93;;
18455;SDS011;9357;49.900;8.208;2023-06-22T07:38:58;12.83;;;11.63;;
18455;SDS011;9357;49.900;8.208;2023-06-22T07:40:31;11.37;;;10.23;;
18455;SDS011;9357;49.900;8.208;2023-06-22T07:42:04;13.07;;;11.40;;
18455;SDS011;9357;49.900;8.208;2023-06-22T07:43:39;13.33;;;11.70;;
18455;SDS011;9357;49.900;8.208;2023-06-22T07:45:11;13.93;;;12.53;;
18455;SDS011;9357;49.900;8.208;2023-06-22T07:46:44;12.53;;;11.33;;
18455;SDS011;9357;49.900;8.208;2023-06-22T07:48:17;13.37;;;12.17;;
18455;SDS011;9357;49.900;8.208;2023-06-22T07:49:52;14.20;;;12.80;;
18455;SDS011;9357;49.900;8.208;2023-06-22T07:51:26;13.60;;;12.17;;
18455;SDS011;9357;49.900;8.208;2023-06-22T07:52:58;13.17;;;11.87;;
18455;SDS011;9357;49.900;8.208;2023-06-22T07:54:31;14.73;;;12.07;;
18455;SDS011;9357;49.900;8.208;2023-06-22T07:56:04;12.03;;;10.90;;
18455;SDS011;9357;49.900;8.208;2023-06-22T07:57:38;12.87;;;11.57;;
18455;SDS011;9357;49.900;8.208;2023-06-22T07:59:14;12.67;;;11.43;;
18455;SDS011;9357;49.900;8.208;2023-06-22T08:00:47;13.13;;;11.73;;
18455;SDS011;9357;49.900;8.208;2023-06-22T08:02:20;12.80;;;11.60;;
18455;SDS011;9357;49.900;8.208;2023-06-22T08:03:53;13.00;;;11.73;;
18455;SDS011;9357;49.900;8.208;2023-06-22T08:05:26;13.20;;;11.90;;
18455;SDS011;9357;49.900;8.208;2023-06-22T08:06:59;12.63;;;11.30;;
18455;SDS011;9357;49.900;8.208;2023-06-22T08:08:31;12.13;;;11.03;;
18455;SDS011;9357;49.900;8.208;2023-06-22T08:10:05;12.80;;;11.60;;
18455;SDS011;9357;49.900;8.208;2023-06-22T08:11:38;12.80;;;11.60;;
18455;SDS011;9357;49.900;8.208;2023-06-22T08:13:11;13.47;;;12.27;;
18455;SDS011;9357;49.900;8.208;2023-06-22T08:14:45;13.10;;;11.80;;
18455;SDS011;9357;49.900;8.208;2023-06-22T08:16:18;13.23;;;11.93;;
18455;SDS011;9357;49.900;8.208;2023-06-22T08:17:50;13.27;;;11.97;;
18455;SDS011;9357;49.900;8.208;2023-06-22T08:19:24;13.10;;;11.90;;
18455;SDS011;9357;49.900;8.208;2023-06-22T08:20:56;13.47;;;12.13;;
18455;SDS011;9357;49.900;8.208;2023-06-22T08:22:29;13.30;;;12.00;;
18455;SDS011;9357;49.900;8.208;2023-06-22T08:24:04;13.90;;;12.50;;
18455;SDS011;9357;49.900;8.208;2023-06-22T08:25:38;13.57;;;12.27;;
18455;SDS011;9357;49.900;8.208;2023-06-22T08:27:10;12.93;;;11.73;;
18455;SDS011;9357;49.900;8.208;2023-06-22T08:28:44;13.17;;;12.00;;
18455;SDS011;9357;49.900;8.208;2023-06-22T08:30:20;13.47;;;12.17;;
18455;SDS011;9357;49.900;8.208;2023-06-22T08:31:53;13.20;;;12.00;;
18455;SDS011;9357;49.900;8.208;2023-06-22T08:33:26;13.23;;;12.07;;
18455;SDS011;9357;49.900;8.208;2023-06-22T08:35:01;12.67;;;11.47;;
18455;SDS011;9357;49.900;8.208;2023-06-22T08:36:34;14.20;;;12.83;;
18455;SDS011;9357;49.900;8.208;2023-06-22T08:38:12;13.73;;;12.43;;
18455;SDS011;9357;49.900;8.208;2023-06-22T08:39:46;14.10;;;12.40;;
18455;SDS011;9357;49.900;8.208;2023-06-22T08:41:19;13.73;;;12.43;;
18455;SDS011;9357;49.900;8.208;2023-06-22T08:42:52;14.20;;;12.73;;
18455;SDS011;9357;49.900;8.208;2023-06-22T08:44:25;13.67;;;12.37;;
18455;SDS011;9357;49.900;8.208;2023-06-22T08:45:59;13.67;;;12.47;;
18455;SDS011;9357;49.900;8.208;2023-06-22T08:47:33;13.80;;;12.60;;
18455;SDS011;9357;49.900;8.208;2023-06-22T08:49:06;13.47;;;12.07;;
18455;SDS011;9357;49.900;8.208;2023-06-22T08:50:40;13.87;;;12.50;;
18455;SDS011;9357;49.900;8.208;2023-06-22T08:52:13;14.00;;;12.63;;
18455;SDS011;9357;49.900;8.208;2023-06-22T08:53:46;15.40;;;12.10;;
18455;SDS011;9357;49.900;8.208;2023-06-22T08:55:19;12.93;;;11.73;;
18455;SDS011;9357;49.900;8.208;2023-06-22T08:56:51;12.90;;;11.70;;
18455;SDS011;9357;49.900;8.208;2023-06-22T08:58:24;13.30;;;12.00;;
18455;SDS011;9357;49.900;8.208;2023-06-22T08:59:57;13.53;;;12.33;;
18455;SDS011;9357;49.900;8.208;2023-06-22T09:01:32;11.90;;;10.90;;
18455;SDS011;9357;49.900;8.208;2023-06-22T09:03:04;12.00;;;10.83;;
18455;SDS011;9357;49.900;8.208;2023-06-22T09:04:37;11.87;;;10.60;;
18455;SDS011;9357;49.900;8.208;2023-06-22T09:06:10;11.83;;;10.83;;
18455;SDS011;9357;49.900;8.208;2023-06-22T09:07:45;12.33;;;11.13;;
18455;SDS011;9357;49.900;8.208;2023-06-22T09:09:18;11.70;;;10.50;;
18455;SDS011;9357;49.900;8.208;2023-06-22T09:10:51;12.00;;;10.90;;
18455;SDS011;9357;49.900;8.208;2023-06-22T09:12:24;11.40;;;10.30;;
18455;SDS011;9357;49.900;8.208;2023-06-22T09:13:58;12.83;;;11.70;;
18455;SDS011;9357;49.900;8.208;2023-06-22T09:15:31;11.90;;;10.87;;
18455;SDS011;9357;49.900;8.208;2023-06-22T09:17:05;12.10;;;10.90;;
18455;SDS011;9357;49.900;8.208;2023-06-22T09:18:38;11.97;;;10.87;;
18455;SDS011;9357;49.900;8.208;2023-06-22T09:20:11;11.60;;;10.37;;